Terminal Aerodrome Forecast
Issued by NWS

Home | Current Version | Previous Version | Text Only | Print | Product List | Glossary Off
Versions: 1 2 3 4 5 6 7 8 9 10 11 12 13 14 15

000
FTUS43 KGRB 190520
TAFMTW
TAF
KMTW 190520Z 1906/2006 30005KT P6SM SCT250
     FM191100 31003KT 6SM BR SCT200
     FM191500 07003KT P6SM SCT250
     FM200200 09004KT 6SM BR SCT150=

USA.gov is the U.S. government's official web portal to all federal, state and local government web resources and services.